sensor_id;sensor_type;location;lat;lon;timestamp;pressure;altitude;pressure_sealevel;temperature;humidity
76728;BME280;65652;53.132;18.026;2022-12-07T00:00:55;100495.70;;;3.09;84.45
76728;BME280;65652;53.132;18.026;2022-12-07T00:03:22;100497.33;;;3.08;84.41
76728;BME280;65652;53.132;18.026;2022-12-07T00:05:49;100495.19;;;3.06;84.56
76728;BME280;65652;53.132;18.026;2022-12-07T00:08:15;100491.61;;;3.05;84.57
76728;BME280;65652;53.132;18.026;2022-12-07T00:10:42;100490.61;;;3.01;84.73
76728;BME280;65652;53.132;18.026;2022-12-07T00:13:09;100487.42;;;2.99;84.54
76728;BME280;65652;53.132;18.026;2022-12-07T00:15:36;100491.60;;;2.96;84.56
76728;BME280;65652;53.132;18.026;2022-12-07T00:18:03;100484.36;;;2.95;84.60
76728;BME280;65652;53.132;18.026;2022-12-07T00:20:29;100485.14;;;2.97;84.60
76728;BME280;65652;53.132;18.026;2022-12-07T00:22:57;100484.59;;;2.99;84.69
76728;BME280;65652;53.132;18.026;2022-12-07T00:25:24;100485.63;;;3.00;84.72
76728;BME280;65652;53.132;18.026;2022-12-07T00:27:54;100483.30;;;2.98;84.67
76728;BME280;65652;53.132;18.026;2022-12-07T00:30:24;100477.86;;;2.95;84.57
76728;BME280;65652;53.132;18.026;2022-12-07T00:32:50;100478.83;;;2.94;84.76
76728;BME280;65652;53.132;18.026;2022-12-07T00:35:17;100479.17;;;2.91;84.79
76728;BME280;65652;53.132;18.026;2022-12-07T00:37:44;100474.33;;;2.91;84.74
76728;BME280;65652;53.132;18.026;2022-12-07T00:40:11;100476.36;;;2.89;84.94
76728;BME280;65652;53.132;18.026;2022-12-07T00:42:38;100477.70;;;2.90;84.87
76728;BME280;65652;53.132;18.026;2022-12-07T00:45:05;100473.43;;;2.91;84.77
76728;BME280;65652;53.132;18.026;2022-12-07T00:47:32;100476.04;;;2.91;84.91
76728;BME280;65652;53.132;18.026;2022-12-07T00:49:59;100475.81;;;2.92;84.72
76728;BME280;65652;53.132;18.026;2022-12-07T00:52:26;100475.13;;;2.92;84.71
76728;BME280;65652;53.132;18.026;2022-12-07T00:54:53;100474.80;;;2.88;84.76
76728;BME280;65652;53.132;18.026;2022-12-07T00:57:20;100470.40;;;2.86;84.80
76728;BME280;65652;53.132;18.026;2022-12-07T00:59:47;100469.41;;;2.88;84.69
76728;BME280;65652;53.132;18.026;2022-12-07T01:02:14;100464.34;;;2.88;84.79
76728;BME280;65652;53.132;18.026;2022-12-07T01:04:41;100465.43;;;2.88;84.80
76728;BME280;65652;53.132;18.026;2022-12-07T01:07:08;100466.17;;;2.90;84.77
76728;BME280;65652;53.132;18.026;2022-12-07T01:09:35;100464.77;;;2.93;84.81
76728;BME280;65652;53.132;18.026;2022-12-07T01:12:02;100463.56;;;2.92;84.83
76728;BME280;65652;53.132;18.026;2022-12-07T01:14:29;100460.36;;;2.94;84.83
76728;BME280;65652;53.132;18.026;2022-12-07T01:16:56;100460.20;;;2.93;84.83
76728;BME280;65652;53.132;18.026;2022-12-07T01:19:23;100456.55;;;2.93;84.89
76728;BME280;65652;53.132;18.026;2022-12-07T01:21:49;100457.04;;;2.94;84.76
76728;BME280;65652;53.132;18.026;2022-12-07T01:24:16;100448.70;;;2.96;84.82
76728;BME280;65652;53.132;18.026;2022-12-07T01:26:43;100450.20;;;2.97;84.85
76728;BME280;65652;53.132;18.026;2022-12-07T01:29:10;100447.64;;;2.99;84.78
76728;BME280;65652;53.132;18.026;2022-12-07T01:31:36;100443.45;;;2.99;84.75
76728;BME280;65652;53.132;18.026;2022-12-07T01:34:03;100443.09;;;2.99;84.76
76728;BME280;65652;53.132;18.026;2022-12-07T01:36:33;100440.84;;;2.99;84.55
76728;BME280;65652;53.132;18.026;2022-12-07T01:39:04;100441.61;;;2.98;84.64
76728;BME280;65652;53.132;18.026;2022-12-07T01:41:33;100436.54;;;2.95;84.59
76728;BME280;65652;53.132;18.026;2022-12-07T01:46:46;100431.42;;;2.93;84.75
76728;BME280;65652;53.132;18.026;2022-12-07T01:51:48;100426.02;;;2.93;84.84
76728;BME280;65652;53.132;18.026;2022-12-07T01:54:16;100420.48;;;2.93;84.82
76728;BME280;65652;53.132;18.026;2022-12-07T01:56:49;100412.01;;;2.97;84.86
76728;BME280;65652;53.132;18.026;2022-12-07T01:59:19;100416.55;;;3.00;84.68
76728;BME280;65652;53.132;18.026;2022-12-07T02:01:48;100408.77;;;2.99;84.70
76728;BME280;65652;53.132;18.026;2022-12-07T02:04:15;100406.33;;;2.96;84.77
76728;BME280;65652;53.132;18.026;2022-12-07T02:06:42;100399.77;;;2.95;84.78
76728;BME280;65652;53.132;18.026;2022-12-07T02:09:10;100400.41;;;2.93;84.82
76728;BME280;65652;53.132;18.026;2022-12-07T02:11:39;100398.84;;;2.93;84.99
76728;BME280;65652;53.132;18.026;2022-12-07T02:14:06;100397.70;;;2.94;85.00
76728;BME280;65652;53.132;18.026;2022-12-07T02:28:06;100399.02;;;3.02;85.01
76728;BME280;65652;53.132;18.026;2022-12-07T02:30:35;100394.98;;;2.99;85.23
76728;BME280;65652;53.132;18.026;2022-12-07T02:35:41;100397.73;;;2.94;85.33
76728;BME280;65652;53.132;18.026;2022-12-07T02:40:54;100392.51;;;2.97;85.50
76728;BME280;65652;53.132;18.026;2022-12-07T02:43:25;100390.44;;;2.99;85.58
76728;BME280;65652;53.132;18.026;2022-12-07T02:45:55;100393.20;;;3.02;85.56
76728;BME280;65652;53.132;18.026;2022-12-07T02:48:23;100391.92;;;3.03;85.86
76728;BME280;65652;53.132;18.026;2022-12-07T02:50:52;100389.58;;;3.02;85.77
76728;BME280;65652;53.132;18.026;2022-12-07T02:56:07;100383.52;;;3.01;85.93
76728;BME280;65652;53.132;18.026;2022-12-07T03:04:02;100380.35;;;3.04;86.13
76728;BME280;65652;53.132;18.026;2022-12-07T03:06:42;100377.29;;;3.06;86.16
76728;BME280;65652;53.132;18.026;2022-12-07T03:09:27;100377.13;;;3.08;86.09
76728;BME280;65652;53.132;18.026;2022-12-07T03:12:10;100382.44;;;3.10;86.12
76728;BME280;65652;53.132;18.026;2022-12-07T03:14:44;100374.54;;;3.11;86.08
76728;BME280;65652;53.132;18.026;2022-12-07T03:17:17;100374.48;;;3.15;86.14
76728;BME280;65652;53.132;18.026;2022-12-07T03:19:46;100380.16;;;3.19;85.99
76728;BME280;65652;53.132;18.026;2022-12-07T03:22:14;100378.94;;;3.21;85.90
76728;BME280;65652;53.132;18.026;2022-12-07T03:24:49;100377.02;;;3.24;85.91
76728;BME280;65652;53.132;18.026;2022-12-07T03:27:25;100378.23;;;3.24;85.88
76728;BME280;65652;53.132;18.026;2022-12-07T03:29:57;100380.11;;;3.25;85.82
76728;BME280;65652;53.132;18.026;2022-12-07T03:32:35;100379.83;;;3.26;85.68
76728;BME280;65652;53.132;18.026;2022-12-07T03:35:09;100378.10;;;3.26;85.53
76728;BME280;65652;53.132;18.026;2022-12-07T03:37:44;100378.36;;;3.28;85.39
76728;BME280;65652;53.132;18.026;2022-12-07T03:40:33;100376.88;;;3.32;85.35
76728;BME280;65652;53.132;18.026;2022-12-07T03:43:03;100372.71;;;3.34;85.16
76728;BME280;65652;53.132;18.026;2022-12-07T03:45:43;100373.04;;;3.34;85.06
76728;BME280;65652;53.132;18.026;2022-12-07T03:48:27;100366.23;;;3.35;84.88
76728;BME280;65652;53.132;18.026;2022-12-07T03:51:28;100365.67;;;3.35;84.89
76728;BME280;65652;53.132;18.026;2022-12-07T03:54:13;100363.52;;;3.36;84.81
76728;BME280;65652;53.132;18.026;2022-12-07T03:56:42;100359.04;;;3.35;84.84
76728;BME280;65652;53.132;18.026;2022-12-07T03:59:11;100356.69;;;3.34;84.69
76728;BME280;65652;53.132;18.026;2022-12-07T04:01:42;100355.70;;;3.33;84.58
76728;BME280;65652;53.132;18.026;2022-12-07T04:04:09;100354.48;;;3.33;84.55
76728;BME280;65652;53.132;18.026;2022-12-07T04:06:37;100352.46;;;3.32;84.53
76728;BME280;65652;53.132;18.026;2022-12-07T04:09:04;100352.45;;;3.32;84.36
76728;BME280;65652;53.132;18.026;2022-12-07T04:11:30;100354.05;;;3.34;84.32
76728;BME280;65652;53.132;18.026;2022-12-07T04:13:57;100348.02;;;3.33;84.15
76728;BME280;65652;53.132;18.026;2022-12-07T04:16:42;100347.42;;;3.29;84.02
76728;BME280;65652;53.132;18.026;2022-12-07T04:19:09;100343.66;;;3.27;83.99
76728;BME280;65652;53.132;18.026;2022-12-07T04:21:36;100341.30;;;3.29;83.95
76728;BME280;65652;53.132;18.026;2022-12-07T04:24:03;100337.40;;;3.30;83.81
76728;BME280;65652;53.132;18.026;2022-12-07T04:26:30;100339.52;;;3.27;83.70
76728;BME280;65652;53.132;18.026;2022-12-07T04:28:57;100335.73;;;3.26;83.65
76728;BME280;65652;53.132;18.026;2022-12-07T04:31:24;100342.30;;;3.24;83.49
76728;BME280;65652;53.132;18.026;2022-12-07T04:33:51;100336.92;;;3.21;83.68
76728;BME280;65652;53.132;18.026;2022-12-07T04:36:18;100339.23;;;3.17;83.50
76728;BME280;65652;53.132;18.026;2022-12-07T04:38:46;100337.39;;;3.16;83.55
76728;BME280;65652;53.132;18.026;2022-12-07T04:41:13;100338.44;;;3.13;83.65
76728;BME280;65652;53.132;18.026;2022-12-07T04:43:40;100332.44;;;3.12;83.36
76728;BME280;65652;53.132;18.026;2022-12-07T04:46:07;100335.95;;;3.09;83.45
76728;BME280;65652;53.132;18.026;2022-12-07T04:48:34;100333.59;;;3.07;83.41
76728;BME280;65652;53.132;18.026;2022-12-07T04:51:02;100334.20;;;3.06;83.44
76728;BME280;65652;53.132;18.026;2022-12-07T04:53:30;100336.39;;;3.04;83.01
76728;BME280;65652;53.132;18.026;2022-12-07T04:55:56;100331.89;;;3.04;83.20
76728;BME280;65652;53.132;18.026;2022-12-07T04:58:23;100329.05;;;2.99;83.01
76728;BME280;65652;53.132;18.026;2022-12-07T05:00:54;100332.27;;;2.95;83.01
76728;BME280;65652;53.132;18.026;2022-12-07T05:03:21;100325.32;;;2.92;83.02
76728;BME280;65652;53.132;18.026;2022-12-07T05:05:47;100329.44;;;2.88;83.07
76728;BME280;65652;53.132;18.026;2022-12-07T05:08:14;100328.33;;;2.86;83.03
76728;BME280;65652;53.132;18.026;2022-12-07T05:10:41;100328.98;;;2.83;82.78
76728;BME280;65652;53.132;18.026;2022-12-07T05:13:08;100328.48;;;2.83;82.74
76728;BME280;65652;53.132;18.026;2022-12-07T05:15:35;100327.59;;;2.80;82.37
76728;BME280;65652;53.132;18.026;2022-12-07T05:18:02;100331.02;;;2.73;82.09
76728;BME280;65652;53.132;18.026;2022-12-07T05:20:29;100322.41;;;2.65;81.91
76728;BME280;65652;53.132;18.026;2022-12-07T05:22:56;100323.46;;;2.60;82.06
76728;BME280;65652;53.132;18.026;2022-12-07T05:25:24;100320.64;;;2.55;82.06
76728;BME280;65652;53.132;18.026;2022-12-07T05:27:51;100320.17;;;2.51;81.92
76728;BME280;65652;53.132;18.026;2022-12-07T05:30:18;100318.43;;;2.48;81.98
76728;BME280;65652;53.132;18.026;2022-12-07T05:32:45;100325.60;;;2.45;81.78
76728;BME280;65652;53.132;18.026;2022-12-07T05:35:12;100332.54;;;2.40;81.72
76728;BME280;65652;53.132;18.026;2022-12-07T05:37:39;100331.20;;;2.36;81.50
76728;BME280;65652;53.132;18.026;2022-12-07T05:40:06;100330.48;;;2.33;81.67
76728;BME280;65652;53.132;18.026;2022-12-07T05:42:33;100325.70;;;2.29;81.50
76728;BME280;65652;53.132;18.026;2022-12-07T05:45:00;100329.96;;;2.24;81.86
76728;BME280;65652;53.132;18.026;2022-12-07T05:47:27;100337.96;;;2.19;81.64
76728;BME280;65652;53.132;18.026;2022-12-07T05:49:54;100336.86;;;2.14;81.77
76728;BME280;65652;53.132;18.026;2022-12-07T05:52:21;100336.49;;;2.08;81.83
76728;BME280;65652;53.132;18.026;2022-12-07T05:54:48;100338.27;;;2.08;81.91
76728;BME280;65652;53.132;18.026;2022-12-07T05:57:15;100335.00;;;2.07;81.83
76728;BME280;65652;53.132;18.026;2022-12-07T05:59:42;100336.38;;;2.04;82.05
76728;BME280;65652;53.132;18.026;2022-12-07T06:02:11;100337.27;;;2.01;81.83
76728;BME280;65652;53.132;18.026;2022-12-07T06:04:41;100343.39;;;1.98;82.07
76728;BME280;65652;53.132;18.026;2022-12-07T06:07:09;100346.19;;;1.95;81.92
76728;BME280;65652;53.132;18.026;2022-12-07T06:09:37;100342.88;;;1.91;81.95
76728;BME280;65652;53.132;18.026;2022-12-07T06:12:04;100344.39;;;1.89;82.16
76728;BME280;65652;53.132;18.026;2022-12-07T06:14:50;100345.13;;;1.89;82.16
76728;BME280;65652;53.132;18.026;2022-12-07T06:17:17;100341.73;;;1.87;82.10
76728;BME280;65652;53.132;18.026;2022-12-07T06:19:44;100341.14;;;1.85;82.17
76728;BME280;65652;53.132;18.026;2022-12-07T06:22:11;100341.66;;;1.82;82.17
76728;BME280;65652;53.132;18.026;2022-12-07T06:24:39;100340.77;;;1.80;82.32
76728;BME280;65652;53.132;18.026;2022-12-07T06:27:06;100344.87;;;1.75;82.44
76728;BME280;65652;53.132;18.026;2022-12-07T06:29:33;100345.08;;;1.71;82.70
76728;BME280;65652;53.132;18.026;2022-12-07T06:32:00;100348.33;;;1.69;82.64
76728;BME280;65652;53.132;18.026;2022-12-07T06:34:27;100347.60;;;1.64;82.68
76728;BME280;65652;53.132;18.026;2022-12-07T06:36:53;100351.52;;;1.59;82.69
76728;BME280;65652;53.132;18.026;2022-12-07T06:39:23;100349.66;;;1.55;82.89
76728;BME280;65652;53.132;18.026;2022-12-07T06:41:51;100355.73;;;1.52;83.00
76728;BME280;65652;53.132;18.026;2022-12-07T06:44:18;100351.88;;;1.49;82.80
76728;BME280;65652;53.132;18.026;2022-12-07T06:46:45;100353.96;;;1.50;82.92
76728;BME280;65652;53.132;18.026;2022-12-07T06:49:12;100355.97;;;1.48;83.18
76728;BME280;65652;53.132;18.026;2022-12-07T06:51:39;100350.44;;;1.48;82.80
76728;BME280;65652;53.132;18.026;2022-12-07T06:54:09;100350.60;;;1.48;83.02
76728;BME280;65652;53.132;18.026;2022-12-07T06:56:36;100347.65;;;1.47;82.83
76728;BME280;65652;53.132;18.026;2022-12-07T06:59:04;100345.73;;;1.47;83.05
76728;BME280;65652;53.132;18.026;2022-12-07T07:01:34;100342.38;;;1.45;82.84
76728;BME280;65652;53.132;18.026;2022-12-07T07:04:01;100346.77;;;1.45;82.84
76728;BME280;65652;53.132;18.026;2022-12-07T07:06:28;100344.23;;;1.43;82.86
76728;BME280;65652;53.132;18.026;2022-12-07T07:08:55;100341.67;;;1.42;83.16
76728;BME280;65652;53.132;18.026;2022-12-07T07:11:22;100341.91;;;1.44;83.15
76728;BME280;65652;53.132;18.026;2022-12-07T07:13:49;100335.38;;;1.46;82.70
76728;BME280;65652;53.132;18.026;2022-12-07T07:16:16;100339.99;;;1.44;82.89
76728;BME280;65652;53.132;18.026;2022-12-07T07:18:42;100341.94;;;1.41;82.70
76728;BME280;65652;53.132;18.026;2022-12-07T07:21:09;100338.64;;;1.41;82.77
76728;BME280;65652;53.132;18.026;2022-12-07T07:23:36;100331.58;;;1.40;82.32
76728;BME280;65652;53.132;18.026;2022-12-07T07:26:03;100328.23;;;1.40;82.80
76728;BME280;65652;53.132;18.026;2022-12-07T07:28:30;100332.85;;;1.42;82.54
76728;BME280;65652;53.132;18.026;2022-12-07T07:30:57;100333.87;;;1.45;82.49
76728;BME280;65652;53.132;18.026;2022-12-07T07:33:23;100333.14;;;1.49;82.55
76728;BME280;65652;53.132;18.026;2022-12-07T07:35:50;100335.53;;;1.50;82.45
76728;BME280;65652;53.132;18.026;2022-12-07T07:38:17;100338.02;;;1.48;82.36
76728;BME280;65652;53.132;18.026;2022-12-07T07:40:44;100336.67;;;1.47;82.55
76728;BME280;65652;53.132;18.026;2022-12-07T07:43:11;100335.04;;;1.49;82.37
76728;BME280;65652;53.132;18.026;2022-12-07T07:45:38;100334.36;;;1.52;82.41
76728;BME280;65652;53.132;18.026;2022-12-07T07:48:05;100335.25;;;1.54;82.43
76728;BME280;65652;53.132;18.026;2022-12-07T07:50:32;100332.63;;;1.58;82.14
76728;BME280;65652;53.132;18.026;2022-12-07T07:52:59;100331.87;;;1.59;82.19
76728;BME280;65652;53.132;18.026;2022-12-07T07:55:25;100330.36;;;1.58;82.02
76728;BME280;65652;53.132;18.026;2022-12-07T07:57:53;100329.23;;;1.56;81.92
76728;BME280;65652;53.132;18.026;2022-12-07T08:00:21;100329.13;;;1.55;82.14
76728;BME280;65652;53.132;18.026;2022-12-07T08:02:48;100329.29;;;1.55;82.03
76728;BME280;65652;53.132;18.026;2022-12-07T08:05:16;100330.29;;;1.56;82.29
76728;BME280;65652;53.132;18.026;2022-12-07T08:07:42;100331.77;;;1.58;82.29
76728;BME280;65652;53.132;18.026;2022-12-07T08:10:11;100330.98;;;1.59;82.20
76728;BME280;65652;53.132;18.026;2022-12-07T08:12:40;100330.77;;;1.63;82.35
76728;BME280;65652;53.132;18.026;2022-12-07T08:15:28;100327.02;;;1.64;82.35
76728;BME280;65652;53.132;18.026;2022-12-07T08:17:55;100326.86;;;1.64;82.45
76728;BME280;65652;53.132;18.026;2022-12-07T08:20:22;100325.36;;;1.66;82.61
76728;BME280;65652;53.132;18.026;2022-12-07T08:22:49;100323.91;;;1.67;82.57
76728;BME280;65652;53.132;18.026;2022-12-07T08:25:16;100321.98;;;1.68;82.46
76728;BME280;65652;53.132;18.026;2022-12-07T08:27:43;100324.31;;;1.69;82.43
76728;BME280;65652;53.132;18.026;2022-12-07T08:30:10;100324.17;;;1.72;82.44
76728;BME280;65652;53.132;18.026;2022-12-07T08:32:37;100323.41;;;1.76;82.42
76728;BME280;65652;53.132;18.026;2022-12-07T08:35:04;100317.13;;;1.79;82.52
76728;BME280;65652;53.132;18.026;2022-12-07T08:37:31;100312.40;;;1.82;82.62
76728;BME280;65652;53.132;18.026;2022-12-07T08:39:59;100311.30;;;1.83;82.84
76728;BME280;65652;53.132;18.026;2022-12-07T08:42:26;100310.39;;;1.84;82.81
76728;BME280;65652;53.132;18.026;2022-12-07T08:44:56;100314.44;;;1.86;82.70
76728;BME280;65652;53.132;18.026;2022-12-07T08:47:24;100313.04;;;1.90;82.87
76728;BME280;65652;53.132;18.026;2022-12-07T08:49:52;100312.98;;;1.94;82.90
76728;BME280;65652;53.132;18.026;2022-12-07T08:52:20;100307.69;;;1.98;82.70
76728;BME280;65652;53.132;18.026;2022-12-07T08:54:47;100304.46;;;2.02;82.84
76728;BME280;65652;53.132;18.026;2022-12-07T08:57:14;100307.75;;;2.08;82.78
76728;BME280;65652;53.132;18.026;2022-12-07T08:59:41;100302.91;;;2.11;82.62
76728;BME280;65652;53.132;18.026;2022-12-07T09:02:08;100298.73;;;2.11;82.49
76728;BME280;65652;53.132;18.026;2022-12-07T09:04:35;100295.83;;;2.10;82.52
76728;BME280;65652;53.132;18.026;2022-12-07T09:07:02;100289.20;;;2.10;82.80
76728;BME280;65652;53.132;18.026;2022-12-07T09:09:30;100286.61;;;2.13;82.86
76728;BME280;65652;53.132;18.026;2022-12-07T09:11:57;100283.73;;;2.17;82.83
76728;BME280;65652;53.132;18.026;2022-12-07T09:14:24;100283.75;;;2.22;82.72
76728;BME280;65652;53.132;18.026;2022-12-07T09:16:51;100274.51;;;2.28;82.59
76728;BME280;65652;53.132;18.026;2022-12-07T09:19:17;100273.16;;;2.33;82.54
76728;BME280;65652;53.132;18.026;2022-12-07T09:21:44;100265.02;;;2.38;82.54
76728;BME280;65652;53.132;18.026;2022-12-07T09:24:12;100264.15;;;2.44;82.41
76728;BME280;65652;53.132;18.026;2022-12-07T09:26:39;100259.29;;;2.49;82.57
76728;BME280;65652;53.132;18.026;2022-12-07T09:29:07;100259.06;;;2.53;82.29
76728;BME280;65652;53.132;18.026;2022-12-07T09:31:36;100258.18;;;2.56;82.22
76728;BME280;65652;53.132;18.026;2022-12-07T09:34:02;100257.23;;;2.57;82.00
76728;BME280;65652;53.132;18.026;2022-12-07T09:36:31;100256.57;;;2.57;81.94
76728;BME280;65652;53.132;18.026;2022-12-07T09:38:58;100253.58;;;2.54;81.93
76728;BME280;65652;53.132;18.026;2022-12-07T09:41:26;100252.23;;;2.56;81.87
76728;BME280;65652;53.132;18.026;2022-12-07T09:44:02;100252.16;;;2.57;81.83
76728;BME280;65652;53.132;18.026;2022-12-07T09:46:35;100238.65;;;2.59;81.81
76728;BME280;65652;53.132;18.026;2022-12-07T09:49:03;100233.08;;;2.62;81.88
76728;BME280;65652;53.132;18.026;2022-12-07T09:51:31;100236.23;;;2.64;81.76
76728;BME280;65652;53.132;18.026;2022-12-07T09:53:58;100230.09;;;2.64;82.02
76728;BME280;65652;53.132;18.026;2022-12-07T09:56:29;100227.20;;;2.66;81.99
76728;BME280;65652;53.132;18.026;2022-12-07T09:59:00;100226.97;;;2.67;81.82
76728;BME280;65652;53.132;18.026;2022-12-07T10:01:31;100226.23;;;2.68;81.83
76728;BME280;65652;53.132;18.026;2022-12-07T10:04:19;100224.07;;;2.69;81.96
76728;BME280;65652;53.132;18.026;2022-12-07T10:06:48;100220.79;;;2.71;81.79
76728;BME280;65652;53.132;18.026;2022-12-07T10:09:17;100220.80;;;2.74;81.86
76728;BME280;65652;53.132;18.026;2022-12-07T10:12:17;100217.98;;;2.77;81.85
76728;BME280;65652;53.132;18.026;2022-12-07T10:15:02;100213.41;;;2.80;81.82
76728;BME280;65652;53.132;18.026;2022-12-07T10:20:17;100212.52;;;2.80;81.77
76728;BME280;65652;53.132;18.026;2022-12-07T10:25:22;100207.40;;;2.79;81.51
76728;BME280;65652;53.132;18.026;2022-12-07T10:35:55;100189.60;;;2.79;81.50
76728;BME280;65652;53.132;18.026;2022-12-07T10:38:27;100192.49;;;2.78;81.12
76728;BME280;65652;53.132;18.026;2022-12-07T10:41:06;100186.18;;;2.73;81.02
76728;BME280;65652;53.132;18.026;2022-12-07T10:43:33;100182.01;;;2.72;81.35
76728;BME280;65652;53.132;18.026;2022-12-07T10:46:30;100181.60;;;2.73;81.22
76728;BME280;65652;53.132;18.026;2022-12-07T10:49:26;100180.63;;;2.72;81.28
76728;BME280;65652;53.132;18.026;2022-12-07T10:57:32;100164.27;;;2.75;81.22
76728;BME280;65652;53.132;18.026;2022-12-07T11:00:21;100162.30;;;2.73;81.50
76728;BME280;65652;53.132;18.026;2022-12-07T11:13:40;100150.25;;;2.79;81.67
76728;BME280;65652;53.132;18.026;2022-12-07T11:22:03;100136.98;;;2.81;82.00
76728;BME280;65652;53.132;18.026;2022-12-07T11:27:37;100130.32;;;2.79;81.95
76728;BME280;65652;53.132;18.026;2022-12-07T11:30:31;100132.13;;;2.81;82.01
76728;BME280;65652;53.132;18.026;2022-12-07T11:33:10;100127.02;;;2.82;82.01
76728;BME280;65652;53.132;18.026;2022-12-07T11:40:45;100114.96;;;2.79;81.95
76728;BME280;65652;53.132;18.026;2022-12-07T11:43:27;100112.77;;;2.78;82.16
76728;BME280;65652;53.132;18.026;2022-12-07T11:46:14;100110.21;;;2.77;82.10
76728;BME280;65652;53.132;18.026;2022-12-07T11:48:46;100104.28;;;2.75;82.20
76728;BME280;65652;53.132;18.026;2022-12-07T11:51:16;100105.38;;;2.71;82.17
76728;BME280;65652;53.132;18.026;2022-12-07T11:53:50;100107.48;;;2.71;82.24
76728;BME280;65652;53.132;18.026;2022-12-07T11:56:21;100104.63;;;2.72;82.13
76728;BME280;65652;53.132;18.026;2022-12-07T12:03:59;100096.73;;;2.76;81.97
76728;BME280;65652;53.132;18.026;2022-12-07T12:06:28;100096.28;;;2.74;81.98
76728;BME280;65652;53.132;18.026;2022-12-07T12:20:19;100090.04;;;2.74;81.93
76728;BME280;65652;53.132;18.026;2022-12-07T12:25:37;100085.92;;;2.73;81.90
76728;BME280;65652;53.132;18.026;2022-12-07T12:28:05;100078.16;;;2.69;81.87
76728;BME280;65652;53.132;18.026;2022-12-07T12:30:36;100079.16;;;2.67;82.00
76728;BME280;65652;53.132;18.026;2022-12-07T12:33:27;100078.31;;;2.64;81.91
76728;BME280;65652;53.132;18.026;2022-12-07T12:51:52;100062.95;;;2.62;82.40
76728;BME280;65652;53.132;18.026;2022-12-07T12:54:22;100062.61;;;2.59;82.42
76728;BME280;65652;53.132;18.026;2022-12-07T12:57:06;100059.34;;;2.56;82.39
76728;BME280;65652;53.132;18.026;2022-12-07T12:59:38;100058.66;;;2.56;82.44
76728;BME280;65652;53.132;18.026;2022-12-07T13:02:29;100053.86;;;2.54;82.48
76728;BME280;65652;53.132;18.026;2022-12-07T13:20:57;100054.11;;;2.48;82.69
76728;BME280;65652;53.132;18.026;2022-12-07T13:31:36;100055.13;;;2.40;82.91
76728;BME280;65652;53.132;18.026;2022-12-07T13:36:52;100056.45;;;2.36;82.89
76728;BME280;65652;53.132;18.026;2022-12-07T13:39:22;100064.48;;;2.33;83.06
76728;BME280;65652;53.132;18.026;2022-12-07T13:41:57;100063.50;;;2.32;82.99
76728;BME280;65652;53.132;18.026;2022-12-07T13:44:26;100063.52;;;2.31;83.11
76728;BME280;65652;53.132;18.026;2022-12-07T13:47:03;100062.23;;;2.30;83.16
76728;BME280;65652;53.132;18.026;2022-12-07T13:49:38;100058.80;;;2.29;83.29
76728;BME280;65652;53.132;18.026;2022-12-07T13:52:21;100058.45;;;2.29;83.14
76728;BME280;65652;53.132;18.026;2022-12-07T13:57:22;100060.16;;;2.35;83.10
76728;BME280;65652;53.132;18.026;2022-12-07T13:59:51;100064.44;;;2.36;83.24
76728;BME280;65652;53.132;18.026;2022-12-07T14:02:29;100063.79;;;2.35;82.90
76728;BME280;65652;53.132;18.026;2022-12-07T14:05:27;100064.32;;;2.35;83.11
76728;BME280;65652;53.132;18.026;2022-12-07T14:10:34;100063.43;;;2.30;83.01
76728;BME280;65652;53.132;18.026;2022-12-07T14:13:03;100064.83;;;2.30;83.27
76728;BME280;65652;53.132;18.026;2022-12-07T14:15:51;100061.07;;;2.32;83.20
76728;BME280;65652;53.132;18.026;2022-12-07T14:21:19;100065.21;;;2.35;83.16
76728;BME280;65652;53.132;18.026;2022-12-07T14:24:02;100066.88;;;2.33;83.02
76728;BME280;65652;53.132;18.026;2022-12-07T14:26:29;100067.27;;;2.33;83.06
76728;BME280;65652;53.132;18.026;2022-12-07T14:31:52;100069.34;;;2.25;83.02
76728;BME280;65652;53.132;18.026;2022-12-07T14:34:24;100064.08;;;2.23;83.28
76728;BME280;65652;53.132;18.026;2022-12-07T14:36:51;100067.83;;;2.21;83.21
76728;BME280;65652;53.132;18.026;2022-12-07T14:39:18;100071.96;;;2.20;83.26
76728;BME280;65652;53.132;18.026;2022-12-07T14:41:45;100068.67;;;2.19;83.30
76728;BME280;65652;53.132;18.026;2022-12-07T14:44:24;100072.69;;;2.22;83.46
76728;BME280;65652;53.132;18.026;2022-12-07T14:46:51;100074.25;;;2.22;83.39
76728;BME280;65652;53.132;18.026;2022-12-07T14:49:18;100072.48;;;2.17;83.37
76728;BME280;65652;53.132;18.026;2022-12-07T14:51:46;100075.45;;;2.14;83.48
76728;BME280;65652;53.132;18.026;2022-12-07T14:54:17;100077.05;;;2.11;83.48
76728;BME280;65652;53.132;18.026;2022-12-07T14:56:45;100074.05;;;2.09;83.40
76728;BME280;65652;53.132;18.026;2022-12-07T14:59:16;100077.48;;;2.09;83.61
76728;BME280;65652;53.132;18.026;2022-12-07T15:01:43;100075.44;;;2.11;83.66
76728;BME280;65652;53.132;18.026;2022-12-07T15:04:10;100078.63;;;2.13;83.79
76728;BME280;65652;53.132;18.026;2022-12-07T15:06:37;100071.70;;;2.12;83.78
76728;BME280;65652;53.132;18.026;2022-12-07T15:09:04;100072.16;;;2.08;83.71
76728;BME280;65652;53.132;18.026;2022-12-07T15:11:31;100081.23;;;2.05;83.87
76728;BME280;65652;53.132;18.026;2022-12-07T15:13:58;100080.14;;;2.03;83.78
76728;BME280;65652;53.132;18.026;2022-12-07T15:16:40;100079.48;;;2.00;83.77
76728;BME280;65652;53.132;18.026;2022-12-07T15:19:26;100081.94;;;1.99;83.75
76728;BME280;65652;53.132;18.026;2022-12-07T15:21:53;100081.96;;;2.02;83.67
76728;BME280;65652;53.132;18.026;2022-12-07T15:24:20;100080.40;;;2.02;83.83
76728;BME280;65652;53.132;18.026;2022-12-07T15:26:48;100081.40;;;2.02;83.87
76728;BME280;65652;53.132;18.026;2022-12-07T15:29:14;100086.85;;;2.01;83.86
76728;BME280;65652;53.132;18.026;2022-12-07T15:31:42;100085.34;;;2.01;83.90